FW0924 Weather Reports


Display with metric or nautical units.
time (UTC)temp
F
wind
direction
speed
MPH
gust
MPH
rain 1hr
in
rain 24hr
in
rain mn
in
humidity
%
barometer
mb
20181219083023 69 276 2.0 9.0 0.36 0.48 0.46 95 1013.8
20181219082516 69 339 1.0 3.0 0.27 0.37 0.35 94 1013.0
20181219082115 69 299 1.0 3.0 0.22 0.33 0.30 94 1012.6
20181219081614 69 66 1.0 3.0 0.20 0.30 0.28 94 1012.0
20181219081112 69 171 1.0 6.0 0.18 0.29 0.27 94 1011.7
20181219080611 69 79 1.0 5.0 0.17 0.28 0.25 94 1011.3
20181219080105 69 135 0.0 3.0 0.08 0.18 0.16 94 1011.8
20181219075603 69 225 0.0 3.0 0.02 0.11 0.09 94 1011.7
20181219075102 69 168 1.0 3.0 0.02 0.11 0.09 93 1011.4
20181219074601 70 68 1.0 3.0 0.02 0.11 0.09 93 1011.2
20181219074100 70 76 1.0 4.0 0.02 0.11 0.09 93 1011.1
20181219073559 70 77 1.0 3.0 0.02 0.11 0.09 93 1010.8
20181219073053 70 192 1.0 2.0 0.02 0.11 0.09 93 1010.7
20181219072549 70 120 0.0 2.0 0.01 0.10 0.08 93 1010.6
20181219072048 70 90 1.0 3.0 0.01 0.10 0.08 92 1010.7
20181219071547 70 90 1.0 3.0 0.01 0.10 0.08 92 1010.6
20181219071040 70 98 3.0 7.0 0.01 0.10 0.08 92 1010.5
20181219070539 70 115 1.0 4.0 0.01 0.10 0.08 92 1010.6
20181219070029 70 62 1.0 4.0 0.01 0.10 0.08 91 1010.5
20181219065527 71 76 1.0 3.0 0.00 0.09 0.07 91 1010.5
20181219065026 71 139 1.0 3.0 0.00 0.09 0.07 90 1011.1
20181219064525 71 126 0.0 3.0 0.00 0.09 0.07 90 1011.2
20181219064024 71 106 1.0 5.0 0.00 0.09 0.07 90 1010.8
20181219063524 71 136 1.0 3.0 0.00 0.09 0.07 90 1010.6
20181219063017 71 161 2.0 6.0 0.00 0.09 0.07 89 1010.6
20181219062516 71 122 0.0 2.0 0.00 0.09 0.07 90 1010.6
20181219062115 71 49 1.0 3.0 0.00 0.09 0.07 89 1010.7
20181219061614 71 88 2.0 6.0 0.00 0.09 0.07 88 1010.6
20181219061112 71 94 0.0 4.0 0.00 0.09 0.07 87 1010.9
20181219060612 71 86 3.0 6.0 0.00 0.09 0.07 86 1011.0
20181219060105 71 90 2.0 6.0 0.00 0.09 0.07 85 1010.7
20181219055604 72 99 2.0 6.0 0.00 0.09 0.07 85 1010.9
20181219055102 72 80 1.0 4.0 0.00 0.09 0.07 84 1011.1
20181219054601 72 123 1.0 4.0 0.00 0.09 0.07 84 1011.1
20181219054100 72 178 1.0 3.0 0.00 0.09 0.07 84 1011.0
20181219053559 73 117 1.0 3.0 0.00 0.09 0.07 83 1010.9
20181219053053 73 135 1.0 3.0 0.00 0.09 0.07 83 1011.0
20181219052551 73 105 1.0 4.0 0.00 0.09 0.07 82 1011.1
20181219052048 73 90 2.0 4.0 0.00 0.09 0.07 81 1011.0
20181219051547 74 95 3.0 8.0 0.00 0.09 0.07 80 1011.1
20181219051040 74 93 2.0 6.0 0.00 0.09 0.07 80 1011.2
20181219050539 74 90 0.0 4.0 0.00 0.09 0.07 81 1011.3
20181219050029 74 74 1.0 3.0 0.00 0.09 0.07 81 1011.4
20181219045527 74 46 1.0 3.0 0.00 0.09 0.07 82 1011.5
20181219045028 74 64 1.0 4.0 0.00 0.09 0.07 83 1011.5
20181219044525 74 96 2.0 6.0 0.00 0.09 0.07 84 1011.8
20181219044024 73 78 1.0 3.0 0.00 0.09 0.07 84 1011.8
20181219043523 72 98 0.0 5.0 0.00 0.09 0.07 85 1011.9
20181219043017 72 139 1.0 5.0 0.00 0.09 0.07 85 1012.0
20181219042516 72 95 3.0 6.0 0.00 0.09 0.07 84 1012.2
20181219042115 72 105 1.0 5.0 0.00 0.09 0.07 84 1012.3
20181219041614 72 77 2.0 6.0 0.00 0.09 0.07 84 1012.3
20181219041112 72 77 1.0 4.0 0.00 0.09 0.07 84 1012.5
20181219040612 72 116 1.0 3.0 0.00 0.09 0.07 85 1012.5
20181219040105 72 90 2.0 6.0 0.00 0.09 0.07 85 1012.6
20181219035604 72 83 2.0 4.0 0.00 0.09 0.07 86 1012.6
20181219035102 71 60 2.0 3.0 0.00 0.09 0.07 86 1012.7
20181219034601 72 86 3.0 7.0 0.00 0.09 0.07 86 1012.8
20181219034100 72 83 3.0 6.0 0.00 0.09 0.07 86 1012.8
20181219033559 71 116 3.0 7.0 0.00 0.09 0.07 85 1012.9
20181219033052 72 57 3.0 6.0 0.00 0.09 0.07 84 1013.1
20181219032548 73 87 3.0 6.0 0.00 0.09 0.07 83 1013.2
20181219032047 73 107 2.0 5.0 0.00 0.09 0.07 83 1013.2
20181219031540 74 116 2.0 6.0 0.00 0.09 0.07 81 1013.4
20181219031039 74 97 2.0 6.0 0.00 0.09 0.07 81 1013.4
20181219030529 74 118 2.0 4.0 0.00 0.09 0.07 80 1013.3
20181219030028 74 115 2.0 5.0 0.00 0.09 0.07 80 1013.4
20181219025526 74 125 2.0 4.0 0.00 0.09 0.07 79 1013.3
20181219025026 75 81 2.0 5.0 0.00 0.09 0.07 77 1013.4
20181219024525 76 111 3.0 7.0 0.00 0.09 0.07 76 1013.5
20181219024023 76 0 1.0 4.0 0.00 0.09 0.07 77 1013.5
20181219023516 76 100 1.0 3.0 0.00 0.09 0.07 80 1013.5
20181219023015 74 102 1.0 6.0 0.00 0.09 0.07 81 1013.7
20181219022614 74 126 1.0 4.0 0.00 0.09 0.07 82 1013.8
20181219022113 74 180 2.0 5.0 0.00 0.09 0.07 82 1013.9
20181219021612 74 146 2.0 6.0 0.00 0.09 0.07 82 1013.9
20181219021111 74 127 2.0 4.0 0.00 0.09 0.07 83 1013.9
20181219020605 74 57 1.0 5.0 0.00 0.09 0.07 84 1014.1
20181219020104 74 162 3.0 6.0 0.00 0.09 0.07 85 1014.1
20181219015603 73 124 1.0 4.0 0.00 0.09 0.07 86 1014.1
20181219015101 72 132 2.0 5.0 0.00 0.09 0.07 86 1014.2
20181219014600 72 148 3.0 8.0 0.00 0.09 0.07 86 1014.2
20181219014059 72 118 2.0 4.0 0.00 0.09 0.07 86 1014.2
20181219013552 72 146 1.0 3.0 0.00 0.09 0.07 87 1014.4
20181219013050 72 123 1.0 3.0 0.00 0.09 0.07 87 1014.4
20181219012549 72 96 1.0 3.0 0.00 0.09 0.07 87 1014.6
20181219012048 72 119 2.0 4.0 0.00 0.09 0.07 88 1014.7
20181219011547 72 121 1.0 3.0 0.00 0.09 0.07 88 1014.7
20181219011040 72 101 1.0 5.0 0.00 0.09 0.07 89 1014.8
20181219010539 71 166 1.0 3.0 0.00 0.09 0.07 90 1014.9
20181219010029 71 201 1.0 5.0 0.00 0.09 0.07 91 1014.9
20181219005528 70 124 1.0 4.0 0.00 0.09 0.07 91 1015.0
20181219005027 70 83 1.0 2.0 0.00 0.09 0.07 91 1014.9
20181219004525 70 224 0.0 3.0 0.00 0.09 0.07 91 1015.0
20181219004024 70 77 1.0 3.0 0.00 0.09 0.07 91 1015.0
20181219003523 70 90 1.0 4.0 0.00 0.09 0.07 91 1015.0
20181219003017 71 135 2.0 6.0 0.00 0.09 0.07 91 1015.0
20181219002516 70 174 0.0 4.0 0.00 0.09 0.07 92 1014.9
20181219002115 70 86 1.0 3.0 0.00 0.09 0.07 92 1014.9
20181219001614 70 107 0.0 2.0 0.00 0.09 0.07 92 1015.0
20181219001113 70 195 0.0 1.0 0.00 0.09 0.07 92 1015.1
20181219000612 70 154 0.0 3.0 0.00 0.09 0.07 92 1015.1
20181219000105 69 176 0.0 3.0 0.00 0.09 0.07 92 1015.0
20181218235604 69 81 0.0 2.0 0.00 0.09 0.07 92 1015.0
20181218235102 69 103 0.0 2.0 0.00 0.09 0.07 92 1015.0
20181218234601 69 132 1.0 3.0 0.00 0.09 0.07 93 1015.2
20181218234100 69 124 1.0 3.0 0.00 0.09 0.07 92 1015.1
20181218233559 69 123 0.0 2.0 0.00 0.09 0.07 91 1015.2
20181218233053 69 115 1.0 3.0 0.00 0.09 0.07 91 1015.2
20181218232551 69 80 0.0 2.0 0.00 0.09 0.07 91 1015.1
20181218232040 69 109 0.0 2.0 0.00 0.09 0.07 91 1015.1
20181218231539 69 123 0.0 1.0 0.00 0.09 0.07 90 1015.1
20181218231029 69 157 0.0 1.0 0.00 0.09 0.07 90 1015.1
20181218230528 69 180 0.0 2.0 0.00 0.09 0.07 90 1015.2
20181218230027 69 202 1.0 3.0 0.00 0.09 0.07 90 1015.2
20181218225526 69 149 0.0 2.0 0.00 0.09 0.07 90 1015.2
20181218225025 70 225 0.0 2.0 0.00 0.09 0.07 90 1015.1
20181218224523 70 225 0.0 3.0 0.00 0.09 0.07 90 1015.1
20181218224017 70 169 1.0 4.0 0.00 0.09 0.07 90 1015.1
20181218223515 70 184 2.0 4.0 0.00 0.09 0.07 91 1015.0
20181218223114 70 346 0.0 2.0 0.00 0.09 0.07 92 1015.0
20181218222614 70 0.0 0.0 0.00 0.09 0.07 91 1015.0
20181218222112 69 149 0.0 1.0 0.00 0.09 0.07 91 1015.0
20181218221611 69 149 0.0 1.0 0.00 0.09 0.07 92 1014.9
20181218221105 69 174 1.0 3.0 0.00 0.09 0.07 92 1015.0
20181218220604 69 188 0.0 2.0 0.00 0.09 0.07 92 1015.0
20181218220103 69 180 2.0 5.0 0.00 0.09 0.07 93 1015.1
20181218215602 69 158 0.0 3.0 0.00 0.09 0.07 93 1015.0
20181218215101 69 131 1.0 3.0 0.00 0.09 0.07 93 1015.1
20181218214600 69 180 2.0 5.0 0.00 0.09 0.07 94 1015.0
20181218214055 69 196 0.0 3.0 0.00 0.09 0.07 94 1015.0
20181218213551 69 180 0.0 2.0 0.00 0.09 0.07 95 1014.9
20181218213050 68 167 1.0 3.0 0.00 0.09 0.07 95 1014.9
20181218212549 68 167 1.0 4.0 0.01 0.09 0.07 95 1014.8
20181218212048 68 180 1.0 3.0 0.01 0.09 0.07 96 1014.9
20181218211547 68 149 2.0 6.0 0.01 0.09 0.07 96 1014.9
20181218211040 68 180 1.0 3.0 0.01 0.09 0.07 96 1014.8
20181218210336 68 180 2.0 4.0 0.01 0.09 0.07 96 1014.8
20181218205517 68 174 2.0 4.0 0.01 0.09 0.07 96 1014.7
20181218205016 68 180 1.0 3.0 0.01 0.09 0.07 96 1014.7
20181218204615 67 180 1.0 3.0 0.01 0.09 0.07 97 1014.7
20181218204114 68 175 2.0 5.0 0.01 0.09 0.07 97 1014.6
20181218203613 68 180 1.0 3.0 0.01 0.09 0.07 97 1014.6
20181218203112 68 180 1.0 3.0 0.01 0.09 0.07 97 1014.6
20181218202610 68 167 0.0 3.0 0.00 0.08 0.05 97 1014.5
20181218202110 67 180 0.0 2.0 0.00 0.08 0.05 97 1014.5
20181218201608 67 170 1.0 2.0 0.00 0.08 0.05 98 1014.5
20181218201107 67 168 1.0 3.0 0.00 0.08 0.05 98 1014.4
20181218200606 67 176 1.0 4.0 0.00 0.08 0.05 98 1014.4
20181218200105 67 180 0.0 3.0 0.00 0.08 0.05 98 1014.3
20181218195604 67 90 0.0 2.0 0.00 0.08 0.05 98 1014.3
20181218195103 67 176 1.0 3.0 0.00 0.08 0.05 98 1014.2
20181218194602 67 137 0.0 3.0 0.01 0.08 0.05 98 1014.2
20181218194101 67 158 0.0 3.0 0.01 0.08 0.05 98 1014.2
20181218193600 67 159 0.0 4.0 0.01 0.08 0.05 98 1014.3
20181218193059 67 166 1.0 4.0 0.01 0.08 0.05 98 1014.2
20181218192557 67 141 2.0 5.0 0.01 0.08 0.05 98 1014.2
20181218192056 67 174 2.0 5.0 0.01 0.08 0.05 98 1014.1
20181218191555 67 177 2.0 4.0 0.01 0.08 0.05 98 1014.0
20181218191054 67 181 1.0 4.0 0.01 0.08 0.05 98 1014.1
20181218190553 67 191 2.0 5.0 0.01 0.08 0.05 98 1014.2
20181218190052 67 149 1.0 4.0 0.01 0.08 0.05 98 1014.0
20181218185550 67 131 2.0 4.0 0.01 0.08 0.05 98 1013.9
20181218185048 67 169 1.0 4.0 0.01 0.08 0.05 98 1013.9
20181218184547 67 165 2.0 6.0 0.00 0.07 0.04 98 1013.8
20181218184046 67 156 1.0 4.0 0.00 0.07 0.04 98 1013.8
20181218183545 67 105 1.0 5.0 0.00 0.07 0.04 98 1013.8
20181218183044 67 134 1.0 4.0 0.00 0.07 0.04 98 1013.7
20181218182543 67 159 2.0 6.0 0.00 0.07 0.04 98 1013.7
20181218182042 67 183 2.0 6.0 0.00 0.07 0.04 98 1013.8
20181218181541 67 167 1.0 3.0 0.00 0.07 0.04 98 1013.7
20181218181040 67 149 2.0 6.0 0.00 0.07 0.04 98 1013.6
20181218180538 67 141 2.0 6.0 0.00 0.07 0.04 98 1013.7
20181218180037 67 176 3.0 6.0 0.00 0.07 0.04 98 1013.6
20181218175536 67 198 3.0 7.0 0.00 0.07 0.04 98 1013.6
20181218175035 67 169 1.0 3.0 0.00 0.07 0.04 98 1013.6
20181218174534 67 170 4.0 9.0 0.01 0.07 0.04 98 1013.6
20181218174033 67 177 1.0 5.0 0.01 0.07 0.04 98 1013.5
20181218173532 67 180 2.0 7.0 0.01 0.07 0.04 98 1013.6
20181218173031 67 166 1.0 5.0 0.01 0.07 0.04 98 1013.5
20181218172530 67 202 2.0 3.0 0.01 0.07 0.04 98 1013.5
20181218172029 67 165 2.0 5.0 0.01 0.07 0.04 98 1013.5
20181218171527 67 148 0.0 3.0 0.01 0.07 0.04 98 1013.5
20181218171026 67 74 0.0 2.0 0.01 0.07 0.04 98 1013.5
20181218170525 67 75 1.0 3.0 0.01 0.07 0.04 98 1013.6
20181218170024 67 165 2.0 5.0 0.01 0.07 0.04 98 1013.5
20181218165523 67 185 3.0 7.0 0.01 0.07 0.04 98 1013.6
20181218165022 67 178 3.0 6.0 0.01 0.07 0.04 98 1013.6
20181218164521 67 180 3.0 9.0 0.00 0.05 0.03 98 1013.7
20181218164020 67 201 2.0 4.0 0.00 0.05 0.03 98 1013.8
20181218163519 67 138 4.0 10.0 0.00 0.05 0.03 98 1013.8
20181218163018 67 165 2.0 6.0 0.00 0.05 0.03 98 1013.8
20181218162516 67 149 1.0 5.0 0.00 0.05 0.03 98 1013.8
20181218162015 67 175 2.0 6.0 0.00 0.05 0.03 98 1013.8
20181218161614 67 140 2.0 6.0 0.00 0.05 0.03 97 1013.8
20181218161113 67 170 3.0 6.0 0.00 0.05 0.03 97 1013.8
20181218160612 67 174 2.0 7.0 0.00 0.05 0.03 97 1013.9
20181218160111 67 183 1.0 3.0 0.00 0.05 0.03 97 1013.9
20181218155610 67 158 4.0 9.0 0.01 0.05 0.03 97 1014.0
20181218155109 67 135 2.0 5.0 0.01 0.05 0.03 97 1014.0
20181218154608 67 174 3.0 8.0 0.01 0.05 0.03 97 1014.0
20181218154107 67 178 2.0 9.0 0.01 0.05 0.03 97 1014.0
20181218153606 67 174 4.0 9.0 0.01 0.05 0.03 96 1014.0
20181218153104 67 133 2.0 6.0 0.01 0.05 0.03 96 1014.0
20181218152603 68 164 1.0 3.0 0.01 0.05 0.03 96 1014.1
20181218152102 68 132 2.0 5.0 0.01 0.05 0.03 96 1014.1
20181218151601 68 180 3.0 8.0 0.01 0.05 0.03 96 1014.2
20181218151100 68 180 0.0 3.0 0.01 0.05 0.03 96 1014.2
20181218150529 68 165 0.0 3.0 0.01 0.05 0.03 96 1014.2
20181218150028 68 144 3.0 10.0 0.01 0.05 0.03 96 1014.3
20181218145527 68 129 2.0 5.0 0.00 0.04 0.02 96 1014.3
20181218145025 68 184 1.0 4.0 0.00 0.04 0.02 96 1014.4
20181218144525 68 97 0.0 2.0 0.00 0.04 0.02 96 1014.5
20181218144023 68 184 3.0 8.0 0.01 0.04 0.02 96 1014.5
20181218143522 68 178 3.0 6.0 0.01 0.04 0.02 96 1014.5
20181218143021 68 140 1.0 5.0 0.01 0.04 0.02 96 1014.6
20181218142520 68 130 2.0 7.0 0.01 0.04 0.02 96 1014.6
20181218142019 68 129 2.0 4.0 0.01 0.04 0.02 96 1014.8
20181218141518 68 136 1.0 4.0 0.01 0.04 0.02 96 1014.7
20181218141016 68 169 2.0 6.0 0.01 0.04 0.02 96 1014.8
20181218140515 68 156 2.0 6.0 0.01 0.04 0.02 96 1015.0
20181218140114 68 45 0.0 2.0 0.02 0.04 0.02 96 1014.9
20181218135613 68 168 2.0 7.0 0.02 0.04 0.02 96 1014.9
20181218135112 68 146 2.0 4.0 0.02 0.04 0.02 96 1015.0
20181218134611 68 175 2.0 6.0 0.02 0.04 0.02 96 1015.0
20181218134110 68 152 0.0 4.0 0.01 0.03 0.01 96 1015.1
20181218133609 68 161 1.0 5.0 0.01 0.03 0.01 96 1015.2
20181218133108 68 195 2.0 4.0 0.01 0.03 0.01 96 1015.2
20181218132606 68 175 1.0 6.0 0.01 0.03 0.01 96 1015.2
20181218132105 68 170 1.0 3.0 0.02 0.03 0.01 96 1015.4
20181218131604 68 166 2.0 4.0 0.02 0.03 0.01 95 1015.4
20181218131103 68 182 1.0 4.0 0.02 0.03 0.01 95 1015.4
20181218130602 68 158 1.0 3.0 0.02 0.03 0.01 95 1015.4
20181218130101 68 170 0.0 2.0 0.01 0.02 0.00 95 1015.3
20181218125600 68 164 1.0 3.0 0.01 0.02 0.02 95 1015.4
20181218125059 68 161 1.0 4.0 0.01 0.02 0.02 95 1015.5
20181218124558 68 171 2.0 6.0 0.02 0.02 0.02 95 1015.4
20181218124057 68 190 0.0 2.0 0.02 0.02 0.02 95 1015.5
20181218123556 68 180 2.0 5.0 0.02 0.02 0.02 95 1015.5
20181218123055 68 180 1.0 5.0 0.02 0.02 0.02 95 1015.6
20181218122553 69 211 1.0 6.0 0.02 0.02 0.02 95 1015.6
20181218122052 69 190 2.0 5.0 0.01 0.01 0.01 94 1015.6
20181218121550 69 165 4.0 8.0 0.01 0.01 0.01 94 1015.6
20181218121049 69 241 2.0 8.0 0.01 0.01 0.01 94 1015.6
20181218120548 69 180 2.0 5.0 0.01 0.01 0.01 94 1015.6
20181218120047 69 180 2.0 6.0 0.01 0.01 0.01 94 1015.7
20181218115546 69 166 3.0 7.0 0.01 0.01 0.01 94 1015.6
20181218115045 69 182 2.0 6.0 0.01 0.01 0.01 94 1015.6
20181218114544 69 180 1.0 4.0 0.00 0.00 0.00 94 1015.6
20181218114042 69 175 2.0 6.0 0.00 0.00 0.00 94 1015.6
20181218113542 69 163 2.0 4.0 0.00 0.00 0.00 94 1015.5
20181218113041 69 157 1.0 4.0 0.00 0.00 0.00 94 1015.6
20181218112540 69 176 2.0 6.0 0.00 0.00 0.00 93 1015.6
20181218112038 69 180 3.0 6.0 0.00 0.00 0.00 93 1015.6
20181218111537 69 205 2.0 5.0 0.00 0.00 0.00 93 1015.6
20181218111036 69 173 2.0 5.0 0.00 0.00 0.00 93 1015.6
20181218110535 69 167 2.0 5.0 0.00 0.00 0.00 93 1015.7
20181218110035 69 167 1.0 5.0 0.00 0.00 0.00 93 1015.6
20181218105534 69 176 2.0 5.0 0.00 0.00 0.00 93 1015.5
20181218105032 69 137 2.0 6.0 0.00 0.00 0.00 92 1015.5
20181218104531 69 161 2.0 5.0 0.00 0.00 0.00 92 1015.4
20181218104029 69 165 2.0 6.0 0.00 0.00 0.00 92 1015.4
20181218103528 69 142 1.0 5.0 0.00 0.00 0.00 92 1015.3
20181218103027 69 169 2.0 4.0 0.00 0.00 0.00 92 1015.4
20181218102526 69 192 3.0 6.0 0.00 0.00 0.00 92 1015.3
20181218102025 69 161 3.0 6.0 0.00 0.00 0.00 91 1015.3
20181218101524 70 176 2.0 4.0 0.00 0.00 0.00 91 1015.3
20181218101023 70 186 2.0 6.0 0.00 0.00 0.00 91 1015.2
20181218100522 70 130 0.0 4.0 0.00 0.00 0.00 90 1015.2
20181218100021 70 173 2.0 6.0 0.00 0.00 0.00 90 1015.1
20181218095520 70 174 2.0 6.0 0.00 0.00 0.00 90 1015.1
20181218095018 70 127 3.0 8.0 0.00 0.00 0.00 89 1015.0
20181218094517 71 171 2.0 5.0 0.00 0.00 0.00 88 1014.9
20181218094017 71 176 5.0 9.0 0.00 0.00 0.00 88 1014.8
20181218093614 71 186 3.0 7.0 0.00 0.00 0.00 88 1014.8
20181218093114 71 156 2.0 7.0 0.00 0.00 0.00 88 1014.7
20181218092612 71 138 1.0 3.0 0.00 0.00 0.00 88 1014.6
20181218092111 71 178 1.0 5.0 0.00 0.00 0.00 88 1014.6
20181218091612 71 155 4.0 10.0 0.00 0.00 0.00 88 1014.5
20181218091109 71 170 2.0 5.0 0.00 0.00 0.00 88 1014.3
20181218090608 71 182 2.0 6.0 0.00 0.00 0.00 88 1014.3
20181218090107 71 145 4.0 9.0 0.00 0.00 0.00 88 1014.2
20181218085606 71 164 2.0 6.0 0.00 0.00 0.00 88 1014.2
20181218085104 71 103 4.0 8.0 0.00 0.00 0.00 88 1014.2
20181218084603 71 169 4.0 9.0 0.00 0.00 0.00 87 1014.1
20181218084102 71 159 2.0 9.0 0.00 0.00 0.00 87 1014.1
20181218083601 71 171 2.0 6.0 0.00 0.00 0.00 87 1014.0